sensor_id;sensor_type;location;lat;lon;timestamp;P1;durP1;ratioP1;P2;durP2;ratioP2
9409;SDS011;4744;52.576;13.568;2023-04-08T00:01:42;23.50;;;16.08;;
9409;SDS011;4744;52.576;13.568;2023-04-08T00:04:09;26.48;;;17.23;;
9409;SDS011;4744;52.576;13.568;2023-04-08T00:06:38;22.50;;;17.13;;
9409;SDS011;4744;52.576;13.568;2023-04-08T00:09:05;23.33;;;17.10;;
9409;SDS011;4744;52.576;13.568;2023-04-08T00:11:32;27.27;;;17.65;;
9409;SDS011;4744;52.576;13.568;2023-04-08T00:14:00;26.83;;;18.90;;
9409;SDS011;4744;52.576;13.568;2023-04-08T00:16:29;29.52;;;18.33;;
9409;SDS011;4744;52.576;13.568;2023-04-08T00:18:56;26.42;;;17.75;;
9409;SDS011;4744;52.576;13.568;2023-04-08T00:21:23;29.20;;;19.98;;
9409;SDS011;4744;52.576;13.568;2023-04-08T00:23:51;26.67;;;18.33;;
9409;SDS011;4744;52.576;13.568;2023-04-08T00:26:18;30.65;;;20.02;;
9409;SDS011;4744;52.576;13.568;2023-04-08T00:28:45;28.45;;;18.45;;
9409;SDS011;4744;52.576;13.568;2023-04-08T00:31:12;29.77;;;18.90;;
9409;SDS011;4744;52.576;13.568;2023-04-08T00:33:40;31.55;;;19.75;;
9409;SDS011;4744;52.576;13.568;2023-04-08T00:36:07;25.58;;;18.67;;
9409;SDS011;4744;52.576;13.568;2023-04-08T00:38:34;28.60;;;19.17;;
9409;SDS011;4744;52.576;13.568;2023-04-08T00:41:01;29.70;;;18.95;;
9409;SDS011;4744;52.576;13.568;2023-04-08T00:43:28;31.10;;;20.23;;
9409;SDS011;4744;52.576;13.568;2023-04-08T00:45:55;33.15;;;19.85;;
9409;SDS011;4744;52.576;13.568;2023-04-08T00:48:22;31.15;;;21.08;;
9409;SDS011;4744;52.576;13.568;2023-04-08T00:50:50;33.35;;;20.52;;
9409;SDS011;4744;52.576;13.568;2023-04-08T00:53:18;31.63;;;19.75;;
9409;SDS011;4744;52.576;13.568;2023-04-08T00:55:45;34.92;;;20.25;;
9409;SDS011;4744;52.576;13.568;2023-04-08T00:58:12;31.77;;;19.75;;
9409;SDS011;4744;52.576;13.568;2023-04-08T01:00:41;29.42;;;18.92;;
9409;SDS011;4744;52.576;13.568;2023-04-08T01:03:12;30.75;;;19.98;;
9409;SDS011;4744;52.576;13.568;2023-04-08T01:05:46;32.35;;;20.15;;
9409;SDS011;4744;52.576;13.568;2023-04-08T01:08:22;36.17;;;20.77;;
9409;SDS011;4744;52.576;13.568;2023-04-08T01:10:56;35.63;;;20.75;;
9409;SDS011;4744;52.576;13.568;2023-04-08T01:13:26;32.90;;;20.45;;
9409;SDS011;4744;52.576;13.568;2023-04-08T01:15:59;32.72;;;20.20;;
9409;SDS011;4744;52.576;13.568;2023-04-08T01:18:26;35.03;;;21.20;;
9409;SDS011;4744;52.576;13.568;2023-04-08T01:20:55;36.22;;;20.50;;
9409;SDS011;4744;52.576;13.568;2023-04-08T01:23:28;33.53;;;20.20;;
9409;SDS011;4744;52.576;13.568;2023-04-08T01:25:59;32.70;;;20.65;;
9409;SDS011;4744;52.576;13.568;2023-04-08T01:28:27;29.10;;;19.75;;
9409;SDS011;4744;52.576;13.568;2023-04-08T01:30:56;33.50;;;21.17;;
9409;SDS011;4744;52.576;13.568;2023-04-08T01:33:24;33.03;;;20.20;;
9409;SDS011;4744;52.576;13.568;2023-04-08T01:35:53;30.33;;;20.55;;
9409;SDS011;4744;52.576;13.568;2023-04-08T01:38:22;29.42;;;19.17;;
9409;SDS011;4744;52.576;13.568;2023-04-08T01:40:50;30.75;;;19.17;;
9409;SDS011;4744;52.576;13.568;2023-04-08T01:43:19;29.58;;;19.80;;
9409;SDS011;4744;52.576;13.568;2023-04-08T01:45:47;37.55;;;21.88;;
9409;SDS011;4744;52.576;13.568;2023-04-08T01:48:14;30.90;;;19.75;;
9409;SDS011;4744;52.576;13.568;2023-04-08T01:50:42;27.02;;;18.38;;
9409;SDS011;4744;52.576;13.568;2023-04-08T01:53:10;29.10;;;19.73;;
9409;SDS011;4744;52.576;13.568;2023-04-08T01:55:37;29.30;;;19.10;;
9409;SDS011;4744;52.576;13.568;2023-04-08T01:58:06;36.03;;;20.88;;
9409;SDS011;4744;52.576;13.568;2023-04-08T02:00:38;33.38;;;21.63;;
9409;SDS011;4744;52.576;13.568;2023-04-08T02:03:07;27.70;;;18.35;;
9409;SDS011;4744;52.576;13.568;2023-04-08T02:05:38;33.22;;;21.45;;
9409;SDS011;4744;52.576;13.568;2023-04-08T02:08:05;33.85;;;20.58;;
9409;SDS011;4744;52.576;13.568;2023-04-08T02:10:32;31.65;;;19.23;;
9409;SDS011;4744;52.576;13.568;2023-04-08T02:12:58;32.13;;;20.00;;
9409;SDS011;4744;52.576;13.568;2023-04-08T02:15:27;30.88;;;19.83;;
9409;SDS011;4744;52.576;13.568;2023-04-08T02:18:02;29.55;;;20.25;;
9409;SDS011;4744;52.576;13.568;2023-04-08T02:20:36;27.50;;;19.13;;
9409;SDS011;4744;52.576;13.568;2023-04-08T02:23:06;30.55;;;19.60;;
9409;SDS011;4744;52.576;13.568;2023-04-08T02:25:39;35.65;;;20.30;;
9409;SDS011;4744;52.576;13.568;2023-04-08T02:28:08;34.58;;;21.35;;
9409;SDS011;4744;52.576;13.568;2023-04-08T02:30:37;32.85;;;20.25;;
9409;SDS011;4744;52.576;13.568;2023-04-08T02:33:09;32.20;;;20.95;;
9409;SDS011;4744;52.576;13.568;2023-04-08T02:35:39;30.83;;;20.17;;
9409;SDS011;4744;52.576;13.568;2023-04-08T02:38:07;32.17;;;20.52;;
9409;SDS011;4744;52.576;13.568;2023-04-08T02:40:34;32.75;;;20.27;;
9409;SDS011;4744;52.576;13.568;2023-04-08T02:43:01;28.92;;;21.17;;
9409;SDS011;4744;52.576;13.568;2023-04-08T02:45:29;28.80;;;18.83;;
9409;SDS011;4744;52.576;13.568;2023-04-08T02:47:58;33.28;;;20.70;;
9409;SDS011;4744;52.576;13.568;2023-04-08T02:50:27;30.30;;;20.58;;
9409;SDS011;4744;52.576;13.568;2023-04-08T02:52:54;31.13;;;20.00;;
9409;SDS011;4744;52.576;13.568;2023-04-08T02:55:21;36.83;;;22.13;;
9409;SDS011;4744;52.576;13.568;2023-04-08T02:57:48;34.72;;;20.60;;
9409;SDS011;4744;52.576;13.568;2023-04-08T03:00:15;31.55;;;19.83;;
9409;SDS011;4744;52.576;13.568;2023-04-08T03:02:43;31.13;;;19.98;;
9409;SDS011;4744;52.576;13.568;2023-04-08T03:05:10;33.90;;;20.38;;
9409;SDS011;4744;52.576;13.568;2023-04-08T03:07:38;31.02;;;20.02;;
9409;SDS011;4744;52.576;13.568;2023-04-08T03:10:06;32.58;;;20.98;;
9409;SDS011;4744;52.576;13.568;2023-04-08T03:12:33;28.70;;;19.13;;
9409;SDS011;4744;52.576;13.568;2023-04-08T03:15:00;32.67;;;20.83;;
9409;SDS011;4744;52.576;13.568;2023-04-08T03:17:27;33.55;;;22.27;;
9409;SDS011;4744;52.576;13.568;2023-04-08T03:19:56;36.80;;;21.92;;
9409;SDS011;4744;52.576;13.568;2023-04-08T03:22:23;32.33;;;20.67;;
9409;SDS011;4744;52.576;13.568;2023-04-08T03:24:51;32.50;;;21.17;;
9409;SDS011;4744;52.576;13.568;2023-04-08T03:27:18;37.83;;;22.65;;
9409;SDS011;4744;52.576;13.568;2023-04-08T03:29:45;32.83;;;21.58;;
9409;SDS011;4744;52.576;13.568;2023-04-08T03:32:12;36.28;;;22.45;;
9409;SDS011;4744;52.576;13.568;2023-04-08T03:34:39;39.13;;;22.83;;
9409;SDS011;4744;52.576;13.568;2023-04-08T03:37:06;32.50;;;21.38;;
9409;SDS011;4744;52.576;13.568;2023-04-08T03:39:33;35.17;;;22.15;;
9409;SDS011;4744;52.576;13.568;2023-04-08T03:42:01;35.78;;;22.15;;
9409;SDS011;4744;52.576;13.568;2023-04-08T03:44:29;37.42;;;23.13;;
9409;SDS011;4744;52.576;13.568;2023-04-08T03:46:56;37.38;;;23.80;;
9409;SDS011;4744;52.576;13.568;2023-04-08T03:49:22;37.80;;;23.63;;
9409;SDS011;4744;52.576;13.568;2023-04-08T03:51:49;35.33;;;22.88;;
9409;SDS011;4744;52.576;13.568;2023-04-08T03:54:16;36.05;;;21.58;;
9409;SDS011;4744;52.576;13.568;2023-04-08T03:56:43;33.20;;;21.33;;
9409;SDS011;4744;52.576;13.568;2023-04-08T03:59:12;35.17;;;20.92;;
9409;SDS011;4744;52.576;13.568;2023-04-08T04:01:38;39.38;;;22.98;;
9409;SDS011;4744;52.576;13.568;2023-04-08T04:04:05;41.40;;;23.45;;
9409;SDS011;4744;52.576;13.568;2023-04-08T04:06:32;32.80;;;20.63;;
9409;SDS011;4744;52.576;13.568;2023-04-08T04:08:59;38.00;;;23.90;;
9409;SDS011;4744;52.576;13.568;2023-04-08T04:11:26;38.72;;;23.70;;
9409;SDS011;4744;52.576;13.568;2023-04-08T04:13:53;37.38;;;23.50;;
9409;SDS011;4744;52.576;13.568;2023-04-08T04:16:21;38.70;;;22.65;;
9409;SDS011;4744;52.576;13.568;2023-04-08T04:18:48;32.25;;;21.38;;
9409;SDS011;4744;52.576;13.568;2023-04-08T04:21:17;33.70;;;22.15;;
9409;SDS011;4744;52.576;13.568;2023-04-08T04:23:44;35.85;;;22.80;;
9409;SDS011;4744;52.576;13.568;2023-04-08T04:26:11;33.65;;;22.63;;
9409;SDS011;4744;52.576;13.568;2023-04-08T04:28:39;39.80;;;23.23;;
9409;SDS011;4744;52.576;13.568;2023-04-08T04:31:06;40.22;;;23.88;;
9409;SDS011;4744;52.576;13.568;2023-04-08T04:33:34;37.72;;;24.17;;
9409;SDS011;4744;52.576;13.568;2023-04-08T04:36:01;35.75;;;22.45;;
9409;SDS011;4744;52.576;13.568;2023-04-08T04:38:28;34.50;;;22.23;;
9409;SDS011;4744;52.576;13.568;2023-04-08T04:40:55;36.15;;;22.55;;
9409;SDS011;4744;52.576;13.568;2023-04-08T04:43:23;37.35;;;24.05;;
9409;SDS011;4744;52.576;13.568;2023-04-08T04:45:49;37.03;;;24.15;;
9409;SDS011;4744;52.576;13.568;2023-04-08T04:48:16;44.22;;;26.50;;
9409;SDS011;4744;52.576;13.568;2023-04-08T04:50:45;47.00;;;25.75;;
9409;SDS011;4744;52.576;13.568;2023-04-08T04:53:20;41.47;;;25.08;;
9409;SDS011;4744;52.576;13.568;2023-04-08T04:55:46;43.08;;;25.52;;
9409;SDS011;4744;52.576;13.568;2023-04-08T04:58:13;46.88;;;26.10;;
9409;SDS011;4744;52.576;13.568;2023-04-08T05:00:40;41.40;;;25.55;;
9409;SDS011;4744;52.576;13.568;2023-04-08T05:03:07;46.95;;;26.23;;
9409;SDS011;4744;52.576;13.568;2023-04-08T05:05:34;42.47;;;24.73;;
9409;SDS011;4744;52.576;13.568;2023-04-08T05:08:03;42.70;;;26.23;;
9409;SDS011;4744;52.576;13.568;2023-04-08T05:10:31;46.03;;;26.25;;
9409;SDS011;4744;52.576;13.568;2023-04-08T05:12:58;42.83;;;25.58;;
9409;SDS011;4744;52.576;13.568;2023-04-08T05:15:25;42.05;;;25.92;;
9409;SDS011;4744;52.576;13.568;2023-04-08T05:17:52;47.42;;;26.80;;
9409;SDS011;4744;52.576;13.568;2023-04-08T05:20:19;47.75;;;27.40;;
9409;SDS011;4744;52.576;13.568;2023-04-08T05:22:46;46.80;;;25.90;;
9409;SDS011;4744;52.576;13.568;2023-04-08T05:25:16;52.38;;;28.38;;
9409;SDS011;4744;52.576;13.568;2023-04-08T05:27:43;60.42;;;28.75;;
9409;SDS011;4744;52.576;13.568;2023-04-08T05:30:11;44.88;;;27.58;;
9409;SDS011;4744;52.576;13.568;2023-04-08T05:32:38;49.00;;;28.48;;
9409;SDS011;4744;52.576;13.568;2023-04-08T05:35:05;49.70;;;27.27;;
9409;SDS011;4744;52.576;13.568;2023-04-08T05:37:33;49.83;;;28.77;;
9409;SDS011;4744;52.576;13.568;2023-04-08T05:40:00;56.60;;;29.00;;
9409;SDS011;4744;52.576;13.568;2023-04-08T05:42:29;53.50;;;28.63;;
9409;SDS011;4744;52.576;13.568;2023-04-08T05:44:56;46.20;;;27.25;;
9409;SDS011;4744;52.576;13.568;2023-04-08T05:47:23;48.67;;;29.00;;
9409;SDS011;4744;52.576;13.568;2023-04-08T05:49:50;58.10;;;29.27;;
9409;SDS011;4744;52.576;13.568;2023-04-08T05:52:17;54.10;;;29.35;;
9409;SDS011;4744;52.576;13.568;2023-04-08T05:54:44;47.15;;;26.75;;
9409;SDS011;4744;52.576;13.568;2023-04-08T05:57:11;48.80;;;28.15;;
9409;SDS011;4744;52.576;13.568;2023-04-08T05:59:39;56.20;;;28.52;;
9409;SDS011;4744;52.576;13.568;2023-04-08T06:02:06;56.05;;;29.90;;
9409;SDS011;4744;52.576;13.568;2023-04-08T06:04:33;53.58;;;27.63;;
9409;SDS011;4744;52.576;13.568;2023-04-08T06:07:00;54.25;;;29.90;;
9409;SDS011;4744;52.576;13.568;2023-04-08T06:09:28;55.40;;;28.02;;
9409;SDS011;4744;52.576;13.568;2023-04-08T06:11:55;50.10;;;28.15;;
9409;SDS011;4744;52.576;13.568;2023-04-08T06:14:22;51.40;;;29.35;;
9409;SDS011;4744;52.576;13.568;2023-04-08T06:16:50;55.75;;;29.92;;
9409;SDS011;4744;52.576;13.568;2023-04-08T06:19:18;48.00;;;26.95;;
9409;SDS011;4744;52.576;13.568;2023-04-08T06:21:45;50.42;;;28.13;;
9409;SDS011;4744;52.576;13.568;2023-04-08T06:24:12;45.47;;;26.42;;
9409;SDS011;4744;52.576;13.568;2023-04-08T06:26:39;46.50;;;27.17;;
9409;SDS011;4744;52.576;13.568;2023-04-08T06:29:06;52.47;;;28.17;;
9409;SDS011;4744;52.576;13.568;2023-04-08T06:31:33;52.95;;;28.95;;
9409;SDS011;4744;52.576;13.568;2023-04-08T06:34:02;49.42;;;28.55;;
9409;SDS011;4744;52.576;13.568;2023-04-08T06:36:28;50.65;;;28.70;;
9409;SDS011;4744;52.576;13.568;2023-04-08T06:38:55;48.17;;;28.45;;
9409;SDS011;4744;52.576;13.568;2023-04-08T06:41:22;50.25;;;28.88;;
9409;SDS011;4744;52.576;13.568;2023-04-08T06:43:49;49.85;;;28.17;;
9409;SDS011;4744;52.576;13.568;2023-04-08T06:46:16;47.58;;;28.77;;
9409;SDS011;4744;52.576;13.568;2023-04-08T06:48:43;44.55;;;26.35;;
9409;SDS011;4744;52.576;13.568;2023-04-08T06:51:11;46.72;;;26.58;;
9409;SDS011;4744;52.576;13.568;2023-04-08T06:53:38;46.67;;;27.65;;
9409;SDS011;4744;52.576;13.568;2023-04-08T06:56:05;47.35;;;27.45;;
9409;SDS011;4744;52.576;13.568;2023-04-08T06:58:32;45.95;;;27.42;;
9409;SDS011;4744;52.576;13.568;2023-04-08T07:00:59;44.38;;;26.35;;
9409;SDS011;4744;52.576;13.568;2023-04-08T07:03:27;45.40;;;26.60;;
9409;SDS011;4744;52.576;13.568;2023-04-08T07:05:54;47.08;;;27.38;;
9409;SDS011;4744;52.576;13.568;2023-04-08T07:08:22;45.42;;;26.73;;
9409;SDS011;4744;52.576;13.568;2023-04-08T07:10:50;42.20;;;25.98;;
9409;SDS011;4744;52.576;13.568;2023-04-08T07:13:18;42.92;;;25.08;;
9409;SDS011;4744;52.576;13.568;2023-04-08T07:15:44;42.95;;;25.77;;
9409;SDS011;4744;52.576;13.568;2023-04-08T07:18:11;43.40;;;26.83;;
9409;SDS011;4744;52.576;13.568;2023-04-08T07:20:38;42.70;;;25.95;;
9409;SDS011;4744;52.576;13.568;2023-04-08T07:23:06;43.22;;;26.20;;
9409;SDS011;4744;52.576;13.568;2023-04-08T07:25:34;40.55;;;25.48;;
9409;SDS011;4744;52.576;13.568;2023-04-08T07:28:01;43.03;;;26.13;;
9409;SDS011;4744;52.576;13.568;2023-04-08T07:30:28;41.55;;;24.77;;
9409;SDS011;4744;52.576;13.568;2023-04-08T07:32:55;40.47;;;24.90;;
9409;SDS011;4744;52.576;13.568;2023-04-08T07:35:22;44.03;;;26.73;;
9409;SDS011;4744;52.576;13.568;2023-04-08T07:37:50;47.83;;;26.90;;
9409;SDS011;4744;52.576;13.568;2023-04-08T07:40:17;39.75;;;25.35;;
9409;SDS011;4744;52.576;13.568;2023-04-08T07:42:46;42.75;;;27.10;;
9409;SDS011;4744;52.576;13.568;2023-04-08T07:45:13;42.20;;;25.42;;
9409;SDS011;4744;52.576;13.568;2023-04-08T07:47:40;41.78;;;25.67;;
9409;SDS011;4744;52.576;13.568;2023-04-08T07:50:07;42.83;;;26.27;;
9409;SDS011;4744;52.576;13.568;2023-04-08T07:52:36;38.47;;;24.92;;
9409;SDS011;4744;52.576;13.568;2023-04-08T07:55:03;39.25;;;25.55;;
9409;SDS011;4744;52.576;13.568;2023-04-08T07:57:30;40.08;;;26.13;;
9409;SDS011;4744;52.576;13.568;2023-04-08T07:59:59;38.60;;;24.90;;
9409;SDS011;4744;52.576;13.568;2023-04-08T08:02:26;39.33;;;25.75;;
9409;SDS011;4744;52.576;13.568;2023-04-08T08:04:53;39.33;;;24.90;;
9409;SDS011;4744;52.576;13.568;2023-04-08T08:07:19;36.85;;;25.35;;
9409;SDS011;4744;52.576;13.568;2023-04-08T08:09:46;37.92;;;24.13;;
9409;SDS011;4744;52.576;13.568;2023-04-08T08:12:13;34.28;;;23.73;;
9409;SDS011;4744;52.576;13.568;2023-04-08T08:14:40;34.88;;;24.52;;
9409;SDS011;4744;52.576;13.568;2023-04-08T08:17:08;37.50;;;23.88;;
9409;SDS011;4744;52.576;13.568;2023-04-08T08:19:36;35.40;;;23.17;;
9409;SDS011;4744;52.576;13.568;2023-04-08T08:22:03;34.63;;;23.42;;
9409;SDS011;4744;52.576;13.568;2023-04-08T08:24:30;35.47;;;24.85;;
9409;SDS011;4744;52.576;13.568;2023-04-08T08:26:57;38.40;;;24.02;;
9409;SDS011;4744;52.576;13.568;2023-04-08T08:29:24;36.22;;;24.80;;
9409;SDS011;4744;52.576;13.568;2023-04-08T08:31:51;33.95;;;23.02;;
9409;SDS011;4744;52.576;13.568;2023-04-08T08:34:19;36.35;;;24.25;;
9409;SDS011;4744;52.576;13.568;2023-04-08T08:36:46;35.85;;;23.67;;
9409;SDS011;4744;52.576;13.568;2023-04-08T08:39:13;37.05;;;23.95;;
9409;SDS011;4744;52.576;13.568;2023-04-08T08:41:40;37.97;;;24.27;;
9409;SDS011;4744;52.576;13.568;2023-04-08T08:44:07;37.17;;;25.08;;
9409;SDS011;4744;52.576;13.568;2023-04-08T08:46:35;36.88;;;24.27;;
9409;SDS011;4744;52.576;13.568;2023-04-08T08:49:02;36.83;;;23.02;;
9409;SDS011;4744;52.576;13.568;2023-04-08T08:51:30;38.33;;;24.42;;
9409;SDS011;4744;52.576;13.568;2023-04-08T08:54:00;32.10;;;23.27;;
9409;SDS011;4744;52.576;13.568;2023-04-08T08:56:28;37.42;;;23.27;;
9409;SDS011;4744;52.576;13.568;2023-04-08T08:58:55;31.05;;;21.85;;
9409;SDS011;4744;52.576;13.568;2023-04-08T09:01:28;28.67;;;21.38;;
9409;SDS011;4744;52.576;13.568;2023-04-08T09:04:05;29.65;;;21.00;;
9409;SDS011;4744;52.576;13.568;2023-04-08T09:06:42;31.25;;;21.52;;
9409;SDS011;4744;52.576;13.568;2023-04-08T09:09:10;35.38;;;23.38;;
9409;SDS011;4744;52.576;13.568;2023-04-08T09:11:37;29.42;;;20.88;;
9409;SDS011;4744;52.576;13.568;2023-04-08T09:14:16;29.30;;;21.75;;
9409;SDS011;4744;52.576;13.568;2023-04-08T09:16:46;31.55;;;21.70;;
9409;SDS011;4744;52.576;13.568;2023-04-08T09:19:13;33.00;;;21.83;;
9409;SDS011;4744;52.576;13.568;2023-04-08T09:21:42;32.45;;;21.52;;
9409;SDS011;4744;52.576;13.568;2023-04-08T09:24:26;31.95;;;20.52;;
9409;SDS011;4744;52.576;13.568;2023-04-08T09:26:54;30.17;;;20.70;;
9409;SDS011;4744;52.576;13.568;2023-04-08T09:29:22;31.45;;;22.60;;
9409;SDS011;4744;52.576;13.568;2023-04-08T09:31:52;31.05;;;21.30;;
9409;SDS011;4744;52.576;13.568;2023-04-08T09:34:20;29.30;;;21.38;;
9409;SDS011;4744;52.576;13.568;2023-04-08T09:36:49;32.22;;;23.00;;
9409;SDS011;4744;52.576;13.568;2023-04-08T09:39:16;29.42;;;21.60;;
9409;SDS011;4744;52.576;13.568;2023-04-08T09:41:43;31.70;;;22.40;;
9409;SDS011;4744;52.576;13.568;2023-04-08T09:44:13;30.77;;;22.20;;
9409;SDS011;4744;52.576;13.568;2023-04-08T09:46:44;32.35;;;22.83;;
9409;SDS011;4744;52.576;13.568;2023-04-08T09:49:26;28.92;;;21.48;;
9409;SDS011;4744;52.576;13.568;2023-04-08T09:52:03;30.05;;;21.33;;
9409;SDS011;4744;52.576;13.568;2023-04-08T09:54:35;26.95;;;21.17;;
9409;SDS011;4744;52.576;13.568;2023-04-08T09:57:08;29.65;;;21.10;;
9409;SDS011;4744;52.576;13.568;2023-04-08T09:59:37;28.45;;;20.25;;
9409;SDS011;4744;52.576;13.568;2023-04-08T10:02:08;26.90;;;19.95;;
9409;SDS011;4744;52.576;13.568;2023-04-08T10:04:37;26.65;;;20.08;;
9409;SDS011;4744;52.576;13.568;2023-04-08T10:07:07;25.15;;;19.05;;
9409;SDS011;4744;52.576;13.568;2023-04-08T10:09:35;22.20;;;18.48;;
9409;SDS011;4744;52.576;13.568;2023-04-08T10:12:05;25.83;;;18.83;;
9409;SDS011;4744;52.576;13.568;2023-04-08T10:14:32;23.85;;;18.10;;
9409;SDS011;4744;52.576;13.568;2023-04-08T10:19:52;23.98;;;18.58;;
9409;SDS011;4744;52.576;13.568;2023-04-08T10:25:29;24.50;;;17.92;;
9409;SDS011;4744;52.576;13.568;2023-04-08T10:27:57;19.35;;;16.90;;
9409;SDS011;4744;52.576;13.568;2023-04-08T10:30:40;19.02;;;15.68;;
9409;SDS011;4744;52.576;13.568;2023-04-08T10:33:11;18.85;;;16.38;;
9409;SDS011;4744;52.576;13.568;2023-04-08T10:35:40;21.85;;;17.08;;
9409;SDS011;4744;52.576;13.568;2023-04-08T10:38:11;21.23;;;16.73;;
9409;SDS011;4744;52.576;13.568;2023-04-08T10:40:39;23.00;;;17.52;;
9409;SDS011;4744;52.576;13.568;2023-04-08T10:43:07;24.65;;;18.45;;
9409;SDS011;4744;52.576;13.568;2023-04-08T10:45:35;20.35;;;16.90;;
9409;SDS011;4744;52.576;13.568;2023-04-08T10:48:16;20.83;;;17.42;;
9409;SDS011;4744;52.576;13.568;2023-04-08T10:50:52;20.45;;;16.83;;
9409;SDS011;4744;52.576;13.568;2023-04-08T10:53:25;23.08;;;17.42;;
9409;SDS011;4744;52.576;13.568;2023-04-08T10:55:53;23.10;;;17.75;;
9409;SDS011;4744;52.576;13.568;2023-04-08T10:58:20;23.50;;;18.45;;
9409;SDS011;4744;52.576;13.568;2023-04-08T11:00:47;22.25;;;17.48;;
9409;SDS011;4744;52.576;13.568;2023-04-08T11:03:14;26.35;;;18.98;;
9409;SDS011;4744;52.576;13.568;2023-04-08T11:05:41;27.10;;;19.77;;
9409;SDS011;4744;52.576;13.568;2023-04-08T11:08:08;22.85;;;18.45;;
9409;SDS011;4744;52.576;13.568;2023-04-08T11:10:37;23.25;;;19.33;;
9409;SDS011;4744;52.576;13.568;2023-04-08T11:13:07;22.20;;;17.92;;
9409;SDS011;4744;52.576;13.568;2023-04-08T11:15:34;20.00;;;16.92;;
9409;SDS011;4744;52.576;13.568;2023-04-08T11:18:02;19.92;;;16.27;;
9409;SDS011;4744;52.576;13.568;2023-04-08T11:20:30;21.63;;;16.88;;
9409;SDS011;4744;52.576;13.568;2023-04-08T11:23:00;18.92;;;15.73;;
9409;SDS011;4744;52.576;13.568;2023-04-08T11:25:28;19.63;;;16.85;;
9409;SDS011;4744;52.576;13.568;2023-04-08T11:27:57;22.27;;;16.05;;
9409;SDS011;4744;52.576;13.568;2023-04-08T11:30:25;20.17;;;16.83;;
9409;SDS011;4744;52.576;13.568;2023-04-08T11:32:52;20.45;;;17.63;;
9409;SDS011;4744;52.576;13.568;2023-04-08T11:35:19;17.45;;;15.40;;
9409;SDS011;4744;52.576;13.568;2023-04-08T11:37:46;17.95;;;15.63;;
9409;SDS011;4744;52.576;13.568;2023-04-08T11:40:18;16.23;;;14.48;;
9409;SDS011;4744;52.576;13.568;2023-04-08T11:42:48;18.55;;;15.63;;
9409;SDS011;4744;52.576;13.568;2023-04-08T11:45:17;16.25;;;14.63;;
9409;SDS011;4744;52.576;13.568;2023-04-08T11:47:45;17.13;;;14.65;;
9409;SDS011;4744;52.576;13.568;2023-04-08T11:50:12;17.48;;;14.27;;
9409;SDS011;4744;52.576;13.568;2023-04-08T11:52:51;15.18;;;12.73;;
9409;SDS011;4744;52.576;13.568;2023-04-08T11:55:23;13.20;;;11.80;;
9409;SDS011;4744;52.576;13.568;2023-04-08T11:57:51;13.50;;;12.10;;
9409;SDS011;4744;52.576;13.568;2023-04-08T12:00:20;13.63;;;12.32;;
9409;SDS011;4744;52.576;13.568;2023-04-08T12:02:48;12.07;;;10.90;;
9409;SDS011;4744;52.576;13.568;2023-04-08T12:05:16;12.82;;;10.40;;
9409;SDS011;4744;52.576;13.568;2023-04-08T12:07:43;13.80;;;11.55;;
9409;SDS011;4744;52.576;13.568;2023-04-08T12:10:10;11.73;;;10.63;;
9409;SDS011;4744;52.576;13.568;2023-04-08T12:12:39;11.73;;;10.52;;
9409;SDS011;4744;52.576;13.568;2023-04-08T12:15:06;12.93;;;11.63;;
9409;SDS011;4744;52.576;13.568;2023-04-08T12:17:36;12.45;;;10.30;;
9409;SDS011;4744;52.576;13.568;2023-04-08T12:20:03;11.68;;;10.48;;
9409;SDS011;4744;52.576;13.568;2023-04-08T12:22:31;10.68;;;9.68;;
9409;SDS011;4744;52.576;13.568;2023-04-08T12:24:58;11.13;;;10.02;;
9409;SDS011;4744;52.576;13.568;2023-04-08T12:27:27;13.55;;;10.52;;
9409;SDS011;4744;52.576;13.568;2023-04-08T12:29:54;12.82;;;11.52;;
9409;SDS011;4744;52.576;13.568;2023-04-08T12:32:21;12.50;;;11.15;;
9409;SDS011;4744;52.576;13.568;2023-04-08T12:34:50;12.70;;;11.30;;
9409;SDS011;4744;52.576;13.568;2023-04-08T12:37:17;12.02;;;10.82;;
9409;SDS011;4744;52.576;13.568;2023-04-08T12:39:45;13.32;;;11.98;;
9409;SDS011;4744;52.576;13.568;2023-04-08T12:42:13;12.82;;;11.60;;
9409;SDS011;4744;52.576;13.568;2023-04-08T12:44:40;11.60;;;10.40;;
9409;SDS011;4744;52.576;13.568;2023-04-08T12:47:07;12.60;;;11.32;;
9409;SDS011;4744;52.576;13.568;2023-04-08T12:49:34;11.05;;;9.95;;
9409;SDS011;4744;52.576;13.568;2023-04-08T12:52:02;9.75;;;8.75;;
9409;SDS011;4744;52.576;13.568;2023-04-08T12:54:29;9.50;;;8.60;;
9409;SDS011;4744;52.576;13.568;2023-04-08T12:56:56;9.77;;;8.98;;
9409;SDS011;4744;52.576;13.568;2023-04-08T12:59:23;9.57;;;8.68;;
9409;SDS011;4744;52.576;13.568;2023-04-08T13:01:50;10.27;;;9.20;;
9409;SDS011;4744;52.576;13.568;2023-04-08T13:04:17;9.85;;;8.90;;
9409;SDS011;4744;52.576;13.568;2023-04-08T13:06:44;9.50;;;8.60;;
9409;SDS011;4744;52.576;13.568;2023-04-08T13:09:13;11.52;;;9.25;;
9409;SDS011;4744;52.576;13.568;2023-04-08T13:11:40;10.52;;;9.52;;
9409;SDS011;4744;52.576;13.568;2023-04-08T13:14:07;9.52;;;8.63;;
9409;SDS011;4744;52.576;13.568;2023-04-08T13:16:34;10.48;;;9.48;;
9409;SDS011;4744;52.576;13.568;2023-04-08T13:19:01;10.30;;;9.30;;
9409;SDS011;4744;52.576;13.568;2023-04-08T13:21:28;9.63;;;8.77;;
9409;SDS011;4744;52.576;13.568;2023-04-08T13:23:55;10.38;;;9.43;;
9409;SDS011;4744;52.576;13.568;2023-04-08T13:26:23;9.25;;;8.45;;
9409;SDS011;4744;52.576;13.568;2023-04-08T13:28:50;9.45;;;8.57;;
9409;SDS011;4744;52.576;13.568;2023-04-08T13:31:17;12.50;;;11.32;;
9409;SDS011;4744;52.576;13.568;2023-04-08T13:33:44;12.18;;;10.73;;
9409;SDS011;4744;52.576;13.568;2023-04-08T13:36:11;11.63;;;10.35;;
9409;SDS011;4744;52.576;13.568;2023-04-08T13:38:38;11.95;;;10.75;;
9409;SDS011;4744;52.576;13.568;2023-04-08T13:41:05;11.60;;;10.50;;
9409;SDS011;4744;52.576;13.568;2023-04-08T13:43:33;10.70;;;9.70;;
9409;SDS011;4744;52.576;13.568;2023-04-08T13:46:00;11.60;;;10.50;;
9409;SDS011;4744;52.576;13.568;2023-04-08T13:48:27;11.73;;;10.63;;
9409;SDS011;4744;52.576;13.568;2023-04-08T13:50:54;10.15;;;9.25;;
9409;SDS011;4744;52.576;13.568;2023-04-08T13:53:21;10.60;;;9.57;;
9409;SDS011;4744;52.576;13.568;2023-04-08T13:55:47;9.95;;;9.07;;
9409;SDS011;4744;52.576;13.568;2023-04-08T13:58:19;9.60;;;8.70;;
9409;SDS011;4744;52.576;13.568;2023-04-08T14:00:47;9.68;;;8.77;;
9409;SDS011;4744;52.576;13.568;2023-04-08T14:03:15;8.70;;;7.90;;
9409;SDS011;4744;52.576;13.568;2023-04-08T14:05:42;8.88;;;8.07;;
9409;SDS011;4744;52.576;13.568;2023-04-08T14:08:09;9.15;;;8.35;;
9409;SDS011;4744;52.576;13.568;2023-04-08T14:10:37;8.15;;;7.45;;
9409;SDS011;4744;52.576;13.568;2023-04-08T14:13:04;8.95;;;8.15;;
9409;SDS011;4744;52.576;13.568;2023-04-08T14:15:31;10.82;;;9.30;;
9409;SDS011;4744;52.576;13.568;2023-04-08T14:18:00;8.98;;;8.18;;
9409;SDS011;4744;52.576;13.568;2023-04-08T14:20:27;9.13;;;8.32;;
9409;SDS011;4744;52.576;13.568;2023-04-08T14:22:54;10.60;;;9.65;;
9409;SDS011;4744;52.576;13.568;2023-04-08T14:25:21;10.63;;;9.63;;
9409;SDS011;4744;52.576;13.568;2023-04-08T14:27:48;9.40;;;8.60;;
9409;SDS011;4744;52.576;13.568;2023-04-08T14:30:14;9.82;;;8.93;;
9409;SDS011;4744;52.576;13.568;2023-04-08T14:32:41;9.32;;;8.52;;
9409;SDS011;4744;52.576;13.568;2023-04-08T14:35:10;9.27;;;8.38;;
9409;SDS011;4744;52.576;13.568;2023-04-08T14:37:36;9.80;;;8.88;;
9409;SDS011;4744;52.576;13.568;2023-04-08T14:40:04;9.50;;;8.70;;
9409;SDS011;4744;52.576;13.568;2023-04-08T14:42:33;9.25;;;8.45;;
9409;SDS011;4744;52.576;13.568;2023-04-08T14:45:00;9.18;;;8.38;;
9409;SDS011;4744;52.576;13.568;2023-04-08T14:47:27;9.30;;;8.45;;
9409;SDS011;4744;52.576;13.568;2023-04-08T14:49:54;8.60;;;7.88;;